sensor_id;sensor_type;location;lat;lon;timestamp;P1;durP1;ratioP1;P2;durP2;ratioP2
75787;SDS011;64406;50.024;14.492;2023-03-29T00:01:50;7.33;;;4.07;;
75787;SDS011;64406;50.024;14.492;2023-03-29T00:04:17;9.93;;;4.60;;
75787;SDS011;64406;50.024;14.492;2023-03-29T00:06:46;10.47;;;5.00;;
75787;SDS011;64406;50.024;14.492;2023-03-29T00:09:15;14.57;;;4.93;;
75787;SDS011;64406;50.024;14.492;2023-03-29T00:11:42;7.50;;;4.13;;
75787;SDS011;64406;50.024;14.492;2023-03-29T00:14:08;7.30;;;4.50;;
75787;SDS011;64406;50.024;14.492;2023-03-29T00:16:34;12.67;;;4.57;;
75787;SDS011;64406;50.024;14.492;2023-03-29T00:19:00;10.60;;;4.53;;
75787;SDS011;64406;50.024;14.492;2023-03-29T00:21:25;12.07;;;5.47;;
75787;SDS011;64406;50.024;14.492;2023-03-29T00:23:51;11.03;;;6.10;;
75787;SDS011;64406;50.024;14.492;2023-03-29T00:26:17;9.77;;;4.63;;
75787;SDS011;64406;50.024;14.492;2023-03-29T00:28:43;8.40;;;4.80;;
75787;SDS011;64406;50.024;14.492;2023-03-29T00:31:09;13.00;;;5.60;;
75787;SDS011;64406;50.024;14.492;2023-03-29T00:33:37;12.57;;;4.80;;
75787;SDS011;64406;50.024;14.492;2023-03-29T00:36:02;14.17;;;4.80;;
75787;SDS011;64406;50.024;14.492;2023-03-29T00:38:29;13.70;;;5.70;;
75787;SDS011;64406;50.024;14.492;2023-03-29T00:40:55;10.63;;;5.80;;
75787;SDS011;64406;50.024;14.492;2023-03-29T00:43:21;13.93;;;5.30;;
75787;SDS011;64406;50.024;14.492;2023-03-29T00:45:47;12.23;;;5.47;;
75787;SDS011;64406;50.024;14.492;2023-03-29T00:48:21;11.23;;;5.70;;
75787;SDS011;64406;50.024;14.492;2023-03-29T00:50:51;10.63;;;4.97;;
75787;SDS011;64406;50.024;14.492;2023-03-29T00:53:23;10.93;;;4.87;;
75787;SDS011;64406;50.024;14.492;2023-03-29T00:58:34;11.40;;;4.93;;
75787;SDS011;64406;50.024;14.492;2023-03-29T01:01:06;10.73;;;4.90;;
75787;SDS011;64406;50.024;14.492;2023-03-29T01:03:41;9.10;;;4.20;;
75787;SDS011;64406;50.024;14.492;2023-03-29T01:06:14;7.87;;;4.23;;
75787;SDS011;64406;50.024;14.492;2023-03-29T01:08:44;11.63;;;4.07;;
75787;SDS011;64406;50.024;14.492;2023-03-29T01:11:16;10.00;;;5.10;;
75787;SDS011;64406;50.024;14.492;2023-03-29T01:13:50;13.83;;;4.33;;
75787;SDS011;64406;50.024;14.492;2023-03-29T01:16:19;8.97;;;4.53;;
75787;SDS011;64406;50.024;14.492;2023-03-29T01:18:46;7.30;;;3.87;;
75787;SDS011;64406;50.024;14.492;2023-03-29T01:29:40;6.87;;;3.43;;
75787;SDS011;64406;50.024;14.492;2023-03-29T01:32:16;11.87;;;4.17;;
75787;SDS011;64406;50.024;14.492;2023-03-29T01:40:17;9.10;;;3.93;;
75787;SDS011;64406;50.024;14.492;2023-03-29T01:51:19;6.77;;;3.47;;
75787;SDS011;64406;50.024;14.492;2023-03-29T01:53:59;6.10;;;3.47;;
75787;SDS011;64406;50.024;14.492;2023-03-29T01:56:27;11.70;;;4.27;;
75787;SDS011;64406;50.024;14.492;2023-03-29T01:59:02;8.97;;;3.97;;
75787;SDS011;64406;50.024;14.492;2023-03-29T02:04:02;6.50;;;2.93;;
75787;SDS011;64406;50.024;14.492;2023-03-29T02:06:32;7.10;;;3.87;;
75787;SDS011;64406;50.024;14.492;2023-03-29T02:08:59;7.40;;;3.43;;
75787;SDS011;64406;50.024;14.492;2023-03-29T02:11:25;8.30;;;3.83;;
75787;SDS011;64406;50.024;14.492;2023-03-29T02:13:53;11.23;;;3.63;;
75787;SDS011;64406;50.024;14.492;2023-03-29T02:16:20;11.10;;;3.63;;
75787;SDS011;64406;50.024;14.492;2023-03-29T02:18:46;11.97;;;3.33;;
75787;SDS011;64406;50.024;14.492;2023-03-29T02:21:16;9.93;;;3.83;;
75787;SDS011;64406;50.024;14.492;2023-03-29T02:23:48;7.43;;;3.72;;
75787;SDS011;64406;50.024;14.492;2023-03-29T02:26:15;12.83;;;4.30;;
75787;SDS011;64406;50.024;14.492;2023-03-29T02:28:41;7.63;;;3.33;;
75787;SDS011;64406;50.024;14.492;2023-03-29T02:31:12;8.37;;;3.73;;
75787;SDS011;64406;50.024;14.492;2023-03-29T02:33:47;9.37;;;3.63;;
75787;SDS011;64406;50.024;14.492;2023-03-29T02:36:22;9.27;;;3.80;;
75787;SDS011;64406;50.024;14.492;2023-03-29T02:38:54;7.67;;;3.63;;
75787;SDS011;64406;50.024;14.492;2023-03-29T02:41:23;6.93;;;3.80;;
75787;SDS011;64406;50.024;14.492;2023-03-29T02:43:50;9.57;;;3.60;;
75787;SDS011;64406;50.024;14.492;2023-03-29T02:46:17;8.27;;;3.30;;
75787;SDS011;64406;50.024;14.492;2023-03-29T02:48:45;7.83;;;3.70;;
75787;SDS011;64406;50.024;14.492;2023-03-29T02:51:17;9.30;;;3.90;;
75787;SDS011;64406;50.024;14.492;2023-03-29T02:53:48;11.60;;;3.93;;
75787;SDS011;64406;50.024;14.492;2023-03-29T02:56:18;12.93;;;3.87;;
75787;SDS011;64406;50.024;14.492;2023-03-29T02:58:44;7.47;;;3.40;;
75787;SDS011;64406;50.024;14.492;2023-03-29T03:01:10;8.77;;;3.40;;
75787;SDS011;64406;50.024;14.492;2023-03-29T03:03:37;11.43;;;3.57;;
75787;SDS011;64406;50.024;14.492;2023-03-29T03:06:03;7.70;;;3.73;;
75787;SDS011;64406;50.024;14.492;2023-03-29T03:08:29;10.23;;;4.00;;
75787;SDS011;64406;50.024;14.492;2023-03-29T03:10:55;9.97;;;4.00;;
75787;SDS011;64406;50.024;14.492;2023-03-29T03:13:20;14.73;;;3.67;;
75787;SDS011;64406;50.024;14.492;2023-03-29T03:15:46;7.17;;;3.90;;
75787;SDS011;64406;50.024;14.492;2023-03-29T03:18:13;10.43;;;3.37;;
75787;SDS011;64406;50.024;14.492;2023-03-29T03:20:40;12.13;;;3.63;;
75787;SDS011;64406;50.024;14.492;2023-03-29T03:23:06;6.57;;;3.03;;
75787;SDS011;64406;50.024;14.492;2023-03-29T03:25:34;8.30;;;3.23;;
75787;SDS011;64406;50.024;14.492;2023-03-29T03:28:00;6.00;;;2.70;;
75787;SDS011;64406;50.024;14.492;2023-03-29T03:30:26;8.77;;;3.60;;
75787;SDS011;64406;50.024;14.492;2023-03-29T03:32:53;6.67;;;3.30;;
75787;SDS011;64406;50.024;14.492;2023-03-29T03:35:19;14.77;;;3.03;;
75787;SDS011;64406;50.024;14.492;2023-03-29T03:37:45;7.60;;;3.10;;
75787;SDS011;64406;50.024;14.492;2023-03-29T03:40:11;6.60;;;3.50;;
75787;SDS011;64406;50.024;14.492;2023-03-29T03:42:40;5.83;;;3.30;;
75787;SDS011;64406;50.024;14.492;2023-03-29T03:45:06;7.73;;;3.00;;
75787;SDS011;64406;50.024;14.492;2023-03-29T03:47:33;6.57;;;3.03;;
75787;SDS011;64406;50.024;14.492;2023-03-29T03:50:02;9.13;;;3.10;;
75787;SDS011;64406;50.024;14.492;2023-03-29T03:52:28;6.50;;;2.90;;
75787;SDS011;64406;50.024;14.492;2023-03-29T03:54:56;9.37;;;3.90;;
75787;SDS011;64406;50.024;14.492;2023-03-29T03:57:21;4.43;;;3.00;;
75787;SDS011;64406;50.024;14.492;2023-03-29T03:59:49;5.50;;;2.70;;
75787;SDS011;64406;50.024;14.492;2023-03-29T04:02:14;9.10;;;3.43;;
75787;SDS011;64406;50.024;14.492;2023-03-29T04:04:40;8.27;;;3.37;;
75787;SDS011;64406;50.024;14.492;2023-03-29T04:07:06;6.67;;;3.40;;
75787;SDS011;64406;50.024;14.492;2023-03-29T04:09:33;6.53;;;2.87;;
75787;SDS011;64406;50.024;14.492;2023-03-29T04:11:59;12.90;;;3.37;;
75787;SDS011;64406;50.024;14.492;2023-03-29T04:14:26;7.27;;;3.50;;
75787;SDS011;64406;50.024;14.492;2023-03-29T04:16:54;9.33;;;3.17;;
75787;SDS011;64406;50.024;14.492;2023-03-29T04:19:20;10.50;;;4.00;;
75787;SDS011;64406;50.024;14.492;2023-03-29T04:21:46;6.80;;;2.93;;
75787;SDS011;64406;50.024;14.492;2023-03-29T04:24:14;9.40;;;4.00;;
75787;SDS011;64406;50.024;14.492;2023-03-29T04:26:41;10.83;;;3.63;;
75787;SDS011;64406;50.024;14.492;2023-03-29T04:29:07;4.53;;;2.93;;
75787;SDS011;64406;50.024;14.492;2023-03-29T04:31:33;5.90;;;2.90;;
75787;SDS011;64406;50.024;14.492;2023-03-29T04:33:59;7.00;;;3.40;;
75787;SDS011;64406;50.024;14.492;2023-03-29T04:36:24;9.37;;;4.30;;
75787;SDS011;64406;50.024;14.492;2023-03-29T04:38:50;6.87;;;3.40;;
75787;SDS011;64406;50.024;14.492;2023-03-29T04:41:18;6.63;;;2.80;;
75787;SDS011;64406;50.024;14.492;2023-03-29T04:43:44;10.67;;;3.50;;
75787;SDS011;64406;50.024;14.492;2023-03-29T04:46:11;9.67;;;3.60;;
75787;SDS011;64406;50.024;14.492;2023-03-29T04:48:37;7.53;;;4.17;;
75787;SDS011;64406;50.024;14.492;2023-03-29T04:51:03;6.23;;;3.50;;
75787;SDS011;64406;50.024;14.492;2023-03-29T04:53:29;7.50;;;3.50;;
75787;SDS011;64406;50.024;14.492;2023-03-29T04:55:54;10.67;;;3.67;;
75787;SDS011;64406;50.024;14.492;2023-03-29T04:58:22;6.70;;;3.40;;
75787;SDS011;64406;50.024;14.492;2023-03-29T05:00:47;7.03;;;3.07;;
75787;SDS011;64406;50.024;14.492;2023-03-29T05:03:13;6.13;;;3.13;;
75787;SDS011;64406;50.024;14.492;2023-03-29T05:05:39;8.50;;;3.90;;
75787;SDS011;64406;50.024;14.492;2023-03-29T05:08:06;9.33;;;3.50;;
75787;SDS011;64406;50.024;14.492;2023-03-29T05:10:34;7.07;;;3.33;;
75787;SDS011;64406;50.024;14.492;2023-03-29T05:13:00;6.67;;;3.47;;
75787;SDS011;64406;50.024;14.492;2023-03-29T05:15:28;9.77;;;3.20;;
75787;SDS011;64406;50.024;14.492;2023-03-29T05:17:55;9.03;;;3.60;;
75787;SDS011;64406;50.024;14.492;2023-03-29T05:20:23;8.93;;;4.03;;
75787;SDS011;64406;50.024;14.492;2023-03-29T05:22:49;6.27;;;3.73;;
75787;SDS011;64406;50.024;14.492;2023-03-29T05:25:14;8.77;;;3.63;;
75787;SDS011;64406;50.024;14.492;2023-03-29T05:27:41;7.47;;;3.50;;
75787;SDS011;64406;50.024;14.492;2023-03-29T05:30:10;10.37;;;3.70;;
75787;SDS011;64406;50.024;14.492;2023-03-29T05:32:37;6.33;;;3.17;;
75787;SDS011;64406;50.024;14.492;2023-03-29T05:35:03;7.10;;;3.13;;
75787;SDS011;64406;50.024;14.492;2023-03-29T05:37:30;7.27;;;3.50;;
75787;SDS011;64406;50.024;14.492;2023-03-29T05:39:57;10.70;;;3.30;;
75787;SDS011;64406;50.024;14.492;2023-03-29T05:42:23;5.40;;;3.07;;
75787;SDS011;64406;50.024;14.492;2023-03-29T05:44:49;5.93;;;2.60;;
75787;SDS011;64406;50.024;14.492;2023-03-29T05:47:15;7.70;;;3.00;;
75787;SDS011;64406;50.024;14.492;2023-03-29T05:49:40;5.70;;;2.77;;
75787;SDS011;64406;50.024;14.492;2023-03-29T05:52:15;6.73;;;3.10;;
75787;SDS011;64406;50.024;14.492;2023-03-29T05:54:41;7.40;;;2.70;;
75787;SDS011;64406;50.024;14.492;2023-03-29T05:57:28;7.50;;;3.20;;
75787;SDS011;64406;50.024;14.492;2023-03-29T05:59:58;6.83;;;2.90;;
75787;SDS011;64406;50.024;14.492;2023-03-29T06:02:24;8.30;;;2.90;;
75787;SDS011;64406;50.024;14.492;2023-03-29T06:04:50;3.97;;;2.30;;
75787;SDS011;64406;50.024;14.492;2023-03-29T06:07:16;7.17;;;3.07;;
75787;SDS011;64406;50.024;14.492;2023-03-29T06:09:42;7.17;;;3.13;;
75787;SDS011;64406;50.024;14.492;2023-03-29T06:12:09;8.03;;;3.43;;
75787;SDS011;64406;50.024;14.492;2023-03-29T06:14:34;10.43;;;3.73;;
75787;SDS011;64406;50.024;14.492;2023-03-29T06:17:01;8.10;;;3.43;;
75787;SDS011;64406;50.024;14.492;2023-03-29T06:19:27;10.33;;;4.07;;
75787;SDS011;64406;50.024;14.492;2023-03-29T06:21:53;5.37;;;3.20;;
75787;SDS011;64406;50.024;14.492;2023-03-29T06:24:19;9.17;;;3.43;;
75787;SDS011;64406;50.024;14.492;2023-03-29T06:26:45;8.13;;;3.77;;
75787;SDS011;64406;50.024;14.492;2023-03-29T06:29:11;6.30;;;2.80;;
75787;SDS011;64406;50.024;14.492;2023-03-29T06:31:37;14.00;;;3.63;;
75787;SDS011;64406;50.024;14.492;2023-03-29T06:34:02;9.07;;;3.47;;
75787;SDS011;64406;50.024;14.492;2023-03-29T06:36:29;6.03;;;2.67;;
75787;SDS011;64406;50.024;14.492;2023-03-29T06:38:56;6.27;;;2.83;;
75787;SDS011;64406;50.024;14.492;2023-03-29T06:41:22;9.23;;;3.43;;
75787;SDS011;64406;50.024;14.492;2023-03-29T06:43:48;8.57;;;3.58;;
75787;SDS011;64406;50.024;14.492;2023-03-29T06:46:13;6.68;;;3.20;;
75787;SDS011;64406;50.024;14.492;2023-03-29T06:48:40;6.53;;;3.03;;
75787;SDS011;64406;50.024;14.492;2023-03-29T06:51:07;6.50;;;3.00;;
75787;SDS011;64406;50.024;14.492;2023-03-29T06:53:36;4.37;;;2.87;;
75787;SDS011;64406;50.024;14.492;2023-03-29T06:56:02;9.30;;;3.70;;
75787;SDS011;64406;50.024;14.492;2023-03-29T06:58:33;7.33;;;3.17;;
75787;SDS011;64406;50.024;14.492;2023-03-29T07:01:00;7.67;;;3.00;;
75787;SDS011;64406;50.024;14.492;2023-03-29T07:03:26;7.43;;;3.43;;
75787;SDS011;64406;50.024;14.492;2023-03-29T07:05:52;10.50;;;3.53;;
75787;SDS011;64406;50.024;14.492;2023-03-29T07:08:25;11.60;;;3.60;;
75787;SDS011;64406;50.024;14.492;2023-03-29T07:10:56;9.65;;;3.65;;
75787;SDS011;64406;50.024;14.492;2023-03-29T07:13:23;6.47;;;3.53;;
75787;SDS011;64406;50.024;14.492;2023-03-29T07:15:50;13.07;;;3.50;;
75787;SDS011;64406;50.024;14.492;2023-03-29T07:18:16;6.37;;;3.40;;
75787;SDS011;64406;50.024;14.492;2023-03-29T07:20:42;7.77;;;2.90;;
75787;SDS011;64406;50.024;14.492;2023-03-29T07:23:09;5.73;;;2.83;;
75787;SDS011;64406;50.024;14.492;2023-03-29T07:25:35;6.77;;;3.03;;
75787;SDS011;64406;50.024;14.492;2023-03-29T07:28:01;8.38;;;3.00;;
75787;SDS011;64406;50.024;14.492;2023-03-29T07:30:28;7.00;;;2.78;;
75787;SDS011;64406;50.024;14.492;2023-03-29T07:32:55;8.57;;;4.03;;
75787;SDS011;64406;50.024;14.492;2023-03-29T07:35:23;5.75;;;2.72;;
75787;SDS011;64406;50.024;14.492;2023-03-29T07:37:50;5.87;;;2.20;;
75787;SDS011;64406;50.024;14.492;2023-03-29T07:40:17;4.13;;;2.58;;
75787;SDS011;64406;50.024;14.492;2023-03-29T07:42:47;5.03;;;2.72;;
75787;SDS011;64406;50.024;14.492;2023-03-29T07:45:18;8.52;;;2.85;;
75787;SDS011;64406;50.024;14.492;2023-03-29T07:47:46;7.43;;;3.08;;
75787;SDS011;64406;50.024;14.492;2023-03-29T07:50:13;5.60;;;3.28;;
75787;SDS011;64406;50.024;14.492;2023-03-29T07:52:40;5.43;;;3.45;;
75787;SDS011;64406;50.024;14.492;2023-03-29T07:55:07;6.60;;;2.88;;
75787;SDS011;64406;50.024;14.492;2023-03-29T07:57:35;9.95;;;3.55;;
75787;SDS011;64406;50.024;14.492;2023-03-29T08:00:01;5.75;;;2.92;;
75787;SDS011;64406;50.024;14.492;2023-03-29T08:02:48;6.68;;;3.17;;
75787;SDS011;64406;50.024;14.492;2023-03-29T08:05:18;7.57;;;3.50;;
75787;SDS011;64406;50.024;14.492;2023-03-29T08:07:46;7.40;;;3.45;;
75787;SDS011;64406;50.024;14.492;2023-03-29T08:10:14;6.28;;;2.90;;
75787;SDS011;64406;50.024;14.492;2023-03-29T08:12:44;8.02;;;3.20;;
75787;SDS011;64406;50.024;14.492;2023-03-29T08:15:12;8.25;;;3.13;;
75787;SDS011;64406;50.024;14.492;2023-03-29T08:17:38;8.07;;;3.47;;
75787;SDS011;64406;50.024;14.492;2023-03-29T08:20:05;5.53;;;2.85;;
75787;SDS011;64406;50.024;14.492;2023-03-29T08:22:32;6.15;;;3.20;;
75787;SDS011;64406;50.024;14.492;2023-03-29T08:24:58;3.97;;;2.60;;
75787;SDS011;64406;50.024;14.492;2023-03-29T08:27:24;13.73;;;4.30;;
75787;SDS011;64406;50.024;14.492;2023-03-29T08:29:50;8.20;;;3.60;;
75787;SDS011;64406;50.024;14.492;2023-03-29T08:32:16;7.03;;;2.90;;
75787;SDS011;64406;50.024;14.492;2023-03-29T08:34:42;11.20;;;3.22;;
75787;SDS011;64406;50.024;14.492;2023-03-29T08:37:08;11.48;;;4.30;;
75787;SDS011;64406;50.024;14.492;2023-03-29T08:39:35;6.88;;;3.78;;
75787;SDS011;64406;50.024;14.492;2023-03-29T08:44:39;13.48;;;3.08;;
75787;SDS011;64406;50.024;14.492;2023-03-29T08:48:14;7.55;;;3.35;;
75787;SDS011;64406;50.024;14.492;2023-03-29T08:50:31;6.18;;;2.88;;
75787;SDS011;64406;50.024;14.492;2023-03-29T08:53:03;7.10;;;3.17;;
75787;SDS011;64406;50.024;14.492;2023-03-29T08:55:35;5.15;;;2.58;;
75787;SDS011;64406;50.024;14.492;2023-03-29T08:58:05;5.68;;;3.08;;
75787;SDS011;64406;50.024;14.492;2023-03-29T09:03:34;4.20;;;2.42;;
75787;SDS011;64406;50.024;14.492;2023-03-29T09:06:06;4.57;;;2.53;;
75787;SDS011;64406;50.024;14.492;2023-03-29T09:08:36;5.80;;;2.70;;
75787;SDS011;64406;50.024;14.492;2023-03-29T09:19:24;8.27;;;2.90;;
75787;SDS011;64406;50.024;14.492;2023-03-29T09:22:13;4.82;;;2.15;;
75787;SDS011;64406;50.024;14.492;2023-03-29T09:25:42;7.55;;;2.58;;
75787;SDS011;64406;50.024;14.492;2023-03-29T09:28:20;5.32;;;2.72;;
75787;SDS011;64406;50.024;14.492;2023-03-29T09:31:33;6.95;;;2.95;;
75787;SDS011;64406;50.024;14.492;2023-03-29T09:34:07;6.05;;;3.15;;
75787;SDS011;64406;50.024;14.492;2023-03-29T09:36:53;4.63;;;2.47;;
75787;SDS011;64406;50.024;14.492;2023-03-29T09:39:29;6.85;;;3.40;;
75787;SDS011;64406;50.024;14.492;2023-03-29T09:41:56;11.00;;;3.78;;
75787;SDS011;64406;50.024;14.492;2023-03-29T09:44:24;5.38;;;2.60;;
75787;SDS011;64406;50.024;14.492;2023-03-29T09:46:57;3.88;;;2.60;;
75787;SDS011;64406;50.024;14.492;2023-03-29T09:49:34;3.08;;;2.30;;
75787;SDS011;64406;50.024;14.492;2023-03-29T09:52:05;5.85;;;2.80;;
75787;SDS011;64406;50.024;14.492;2023-03-29T09:54:35;7.15;;;2.95;;
75787;SDS011;64406;50.024;14.492;2023-03-29T09:57:01;5.13;;;2.80;;
75787;SDS011;64406;50.024;14.492;2023-03-29T09:59:27;4.13;;;2.13;;
75787;SDS011;64406;50.024;14.492;2023-03-29T10:01:53;4.97;;;2.50;;
75787;SDS011;64406;50.024;14.492;2023-03-29T10:04:30;3.75;;;2.28;;
75787;SDS011;64406;50.024;14.492;2023-03-29T10:06:56;3.67;;;2.28;;
75787;SDS011;64406;50.024;14.492;2023-03-29T10:09:24;5.25;;;2.72;;
75787;SDS011;64406;50.024;14.492;2023-03-29T10:11:56;3.53;;;2.08;;
75787;SDS011;64406;50.024;14.492;2023-03-29T10:14:34;3.97;;;1.98;;
75787;SDS011;64406;50.024;14.492;2023-03-29T10:17:15;6.90;;;2.42;;
75787;SDS011;64406;50.024;14.492;2023-03-29T10:20:00;8.43;;;2.75;;
75787;SDS011;64406;50.024;14.492;2023-03-29T10:22:31;3.75;;;2.20;;
75787;SDS011;64406;50.024;14.492;2023-03-29T10:25:02;3.22;;;2.33;;
75787;SDS011;64406;50.024;14.492;2023-03-29T10:27:30;4.90;;;2.10;;
75787;SDS011;64406;50.024;14.492;2023-03-29T10:29:59;4.95;;;2.25;;
75787;SDS011;64406;50.024;14.492;2023-03-29T10:37:50;4.93;;;2.45;;
75787;SDS011;64406;50.024;14.492;2023-03-29T10:40:24;5.22;;;2.40;;
75787;SDS011;64406;50.024;14.492;2023-03-29T10:43:10;2.50;;;1.95;;
75787;SDS011;64406;50.024;14.492;2023-03-29T10:45:38;4.88;;;2.00;;
75787;SDS011;64406;50.024;14.492;2023-03-29T10:48:05;3.30;;;2.22;;
75787;SDS011;64406;50.024;14.492;2023-03-29T10:50:34;5.00;;;2.35;;
75787;SDS011;64406;50.024;14.492;2023-03-29T10:53:02;4.60;;;2.30;;
75787;SDS011;64406;50.024;14.492;2023-03-29T10:55:54;3.80;;;2.30;;
75787;SDS011;64406;50.024;14.492;2023-03-29T11:15:42;3.40;;;2.03;;
75787;SDS011;64406;50.024;14.492;2023-03-29T11:21:23;3.50;;;2.47;;
75787;SDS011;64406;50.024;14.492;2023-03-29T11:24:08;3.92;;;2.42;;
75787;SDS011;64406;50.024;14.492;2023-03-29T11:38:04;3.25;;;2.03;;
75787;SDS011;64406;50.024;14.492;2023-03-29T11:40:49;4.88;;;2.70;;
75787;SDS011;64406;50.024;14.492;2023-03-29T11:47:22;5.32;;;2.70;;
75787;SDS011;64406;50.024;14.492;2023-03-29T11:49:45;4.53;;;2.70;;
75787;SDS011;64406;50.024;14.492;2023-03-29T11:52:18;3.58;;;2.40;;
75787;SDS011;64406;50.024;14.492;2023-03-29T11:57:58;6.47;;;2.70;;
75787;SDS011;64406;50.024;14.492;2023-03-29T12:00:35;4.85;;;2.42;;
75787;SDS011;64406;50.024;14.492;2023-03-29T12:03:05;3.85;;;2.65;;
75787;SDS011;64406;50.024;14.492;2023-03-29T12:05:42;5.32;;;2.80;;
75787;SDS011;64406;50.024;14.492;2023-03-29T12:08:24;4.93;;;2.40;;
75787;SDS011;64406;50.024;14.492;2023-03-29T12:10:58;4.47;;;2.42;;
75787;SDS011;64406;50.024;14.492;2023-03-29T12:18:55;6.80;;;3.00;;
75787;SDS011;64406;50.024;14.492;2023-03-29T12:21:24;2.50;;;1.98;;
75787;SDS011;64406;50.024;14.492;2023-03-29T12:23:53;3.92;;;2.25;;
75787;SDS011;64406;50.024;14.492;2023-03-29T12:29:14;4.90;;;2.58;;
75787;SDS011;64406;50.024;14.492;2023-03-29T12:31:51;3.92;;;2.40;;
75787;SDS011;64406;50.024;14.492;2023-03-29T12:39:52;4.80;;;2.55;;
75787;SDS011;64406;50.024;14.492;2023-03-29T12:42:18;3.65;;;2.40;;
75787;SDS011;64406;50.024;14.492;2023-03-29T12:44:50;5.60;;;2.42;;
75787;SDS011;64406;50.024;14.492;2023-03-29T12:47:22;3.72;;;2.20;;
75787;SDS011;64406;50.024;14.492;2023-03-29T12:49:54;3.22;;;2.10;;
75787;SDS011;64406;50.024;14.492;2023-03-29T12:54:54;5.25;;;2.40;;
75787;SDS011;64406;50.024;14.492;2023-03-29T13:00:18;4.13;;;2.85;;
75787;SDS011;64406;50.024;14.492;2023-03-29T13:03:01;4.07;;;2.70;;
75787;SDS011;64406;50.024;14.492;2023-03-29T13:05:33;3.78;;;2.80;;
75787;SDS011;64406;50.024;14.492;2023-03-29T13:11:00;5.97;;;2.67;;
75787;SDS011;64406;50.024;14.492;2023-03-29T13:13:37;3.33;;;2.33;;
75787;SDS011;64406;50.024;14.492;2023-03-29T13:16:12;3.60;;;2.80;;
75787;SDS011;64406;50.024;14.492;2023-03-29T13:18:42;3.33;;;2.42;;
75787;SDS011;64406;50.024;14.492;2023-03-29T13:25:24;3.50;;;1.83;;
75787;SDS011;64406;50.024;14.492;2023-03-29T13:28:17;5.32;;;2.22;;
75787;SDS011;64406;50.024;14.492;2023-03-29T13:31:23;4.03;;;2.35;;
75787;SDS011;64406;50.024;14.492;2023-03-29T13:39:29;6.03;;;2.25;;
75787;SDS011;64406;50.024;14.492;2023-03-29T13:44:42;3.20;;;2.38;;
75787;SDS011;64406;50.024;14.492;2023-03-29T13:49:38;3.67;;;2.50;;
75787;SDS011;64406;50.024;14.492;2023-03-29T13:52:15;3.75;;;2.60;;
75787;SDS011;64406;50.024;14.492;2023-03-29T13:54:58;2.67;;;2.28;;
75787;SDS011;64406;50.024;14.492;2023-03-29T13:57:48;3.72;;;2.30;;
75787;SDS011;64406;50.024;14.492;2023-03-29T14:02:50;3.13;;;2.30;;
75787;SDS011;64406;50.024;14.492;2023-03-29T14:05:22;5.10;;;2.63;;
75787;SDS011;64406;50.024;14.492;2023-03-29T14:07:55;3.22;;;2.47;;
75787;SDS011;64406;50.024;14.492;2023-03-29T14:10:30;5.47;;;2.42;;
75787;SDS011;64406;50.024;14.492;2023-03-29T14:13:02;3.67;;;2.63;;
75787;SDS011;64406;50.024;14.492;2023-03-29T14:15:38;3.67;;;2.55;;
75787;SDS011;64406;50.024;14.492;2023-03-29T14:18:08;3.38;;;2.70;;
75787;SDS011;64406;50.024;14.492;2023-03-29T14:20:38;5.85;;;2.58;;
75787;SDS011;64406;50.024;14.492;2023-03-29T14:23:11;3.67;;;2.40;;
75787;SDS011;64406;50.024;14.492;2023-03-29T14:25:41;3.00;;;2.30;;
75787;SDS011;64406;50.024;14.492;2023-03-29T14:28:23;3.22;;;2.15;;
75787;SDS011;64406;50.024;14.492;2023-03-29T14:30:51;4.15;;;2.47;;
75787;SDS011;64406;50.024;14.492;2023-03-29T14:33:28;6.18;;;2.70;;
75787;SDS011;64406;50.024;14.492;2023-03-29T14:36:02;3.92;;;2.20;;
75787;SDS011;64406;50.024;14.492;2023-03-29T14:38:29;5.63;;;2.65;;
75787;SDS011;64406;50.024;14.492;2023-03-29T14:40:59;5.60;;;2.65;;
75787;SDS011;64406;50.024;14.492;2023-03-29T14:43:26;3.38;;;2.42;;
75787;SDS011;64406;50.024;14.492;2023-03-29T14:45:56;5.70;;;2.53;;
75787;SDS011;64406;50.024;14.492;2023-03-29T14:48:22;5.22;;;2.45;;
75787;SDS011;64406;50.024;14.492;2023-03-29T14:50:49;4.35;;;2.60;;
75787;SDS011;64406;50.024;14.492;2023-03-29T14:53:16;5.10;;;2.92;;
75787;SDS011;64406;50.024;14.492;2023-03-29T14:55:45;5.18;;;2.67;;
75787;SDS011;64406;50.024;14.492;2023-03-29T14:58:51;4.22;;;2.45;;
75787;SDS011;64406;50.024;14.492;2023-03-29T15:01:22;7.53;;;2.80;;
75787;SDS011;64406;50.024;14.492;2023-03-29T15:06:18;3.53;;;2.92;;
75787;SDS011;64406;50.024;14.492;2023-03-29T15:08:45;5.20;;;2.70;;
75787;SDS011;64406;50.024;14.492;2023-03-29T15:11:14;4.75;;;3.00;;
75787;SDS011;64406;50.024;14.492;2023-03-29T15:13:51;3.75;;;2.40;;
75787;SDS011;64406;50.024;14.492;2023-03-29T15:16:25;5.30;;;2.78;;
75787;SDS011;64406;50.024;14.492;2023-03-29T15:18:54;3.22;;;1.95;;
75787;SDS011;64406;50.024;14.492;2023-03-29T15:21:21;3.90;;;2.60;;
75787;SDS011;64406;50.024;14.492;2023-03-29T15:23:56;6.00;;;2.30;;
75787;SDS011;64406;50.024;14.492;2023-03-29T15:26:33;3.90;;;2.88;;
75787;SDS011;64406;50.024;14.492;2023-03-29T15:29:11;4.10;;;2.83;;
75787;SDS011;64406;50.024;14.492;2023-03-29T15:31:39;2.88;;;2.33;;
75787;SDS011;64406;50.024;14.492;2023-03-29T15:34:10;3.13;;;1.85;;
75787;SDS011;64406;50.024;14.492;2023-03-29T15:36:42;5.50;;;2.65;;
75787;SDS011;64406;50.024;14.492;2023-03-29T15:39:12;9.13;;;2.78;;
75787;SDS011;64406;50.024;14.492;2023-03-29T15:41:40;5.55;;;2.95;;
75787;SDS011;64406;50.024;14.492;2023-03-29T15:44:05;3.25;;;2.08;;
75787;SDS011;64406;50.024;14.492;2023-03-29T15:46:31;5.45;;;3.03;;
75787;SDS011;64406;50.024;14.492;2023-03-29T15:48:57;4.80;;;2.90;;
75787;SDS011;64406;50.024;14.492;2023-03-29T15:51:23;3.88;;;2.25;;
75787;SDS011;64406;50.024;14.492;2023-03-29T15:53:49;4.40;;;2.67;;
75787;SDS011;64406;50.024;14.492;2023-03-29T15:56:16;4.55;;;2.60;;
75787;SDS011;64406;50.024;14.492;2023-03-29T15:58:44;4.45;;;2.30;;
75787;SDS011;64406;50.024;14.492;2023-03-29T16:01:28;3.75;;;2.75;;
75787;SDS011;64406;50.024;14.492;2023-03-29T16:04:05;5.35;;;3.13;;
75787;SDS011;64406;50.024;14.492;2023-03-29T16:06:35;5.78;;;3.30;;
75787;SDS011;64406;50.024;14.492;2023-03-29T16:09:02;6.95;;;3.05;;
75787;SDS011;64406;50.024;14.492;2023-03-29T16:11:29;4.75;;;3.13;;
75787;SDS011;64406;50.024;14.492;2023-03-29T16:13:55;3.75;;;2.78;;
75787;SDS011;64406;50.024;14.492;2023-03-29T16:16:21;5.95;;;2.63;;
75787;SDS011;64406;50.024;14.492;2023-03-29T16:18:47;4.15;;;2.75;;
75787;SDS011;64406;50.024;14.492;2023-03-29T16:21:13;5.30;;;3.15;;
75787;SDS011;64406;50.024;14.492;2023-03-29T16:23:40;8.48;;;3.75;;
75787;SDS011;64406;50.024;14.492;2023-03-29T16:26:07;6.72;;;3.50;;
75787;SDS011;64406;50.024;14.492;2023-03-29T16:28:35;6.05;;;3.58;;
75787;SDS011;64406;50.024;14.492;2023-03-29T16:31:03;6.82;;;3.42;;
75787;SDS011;64406;50.024;14.492;2023-03-29T16:33:29;8.65;;;3.88;;
75787;SDS011;64406;50.024;14.492;2023-03-29T16:35:55;6.50;;;3.72;;
75787;SDS011;64406;50.024;14.492;2023-03-29T16:38:21;9.23;;;4.07;;
75787;SDS011;64406;50.024;14.492;2023-03-29T16:40:49;7.78;;;3.85;;
75787;SDS011;64406;50.024;14.492;2023-03-29T16:43:15;6.63;;;4.13;;
75787;SDS011;64406;50.024;14.492;2023-03-29T16:45:43;12.77;;;3.92;;
75787;SDS011;64406;50.024;14.492;2023-03-29T16:48:10;8.25;;;3.72;;
75787;SDS011;64406;50.024;14.492;2023-03-29T16:50:38;7.10;;;3.80;;
75787;SDS011;64406;50.024;14.492;2023-03-29T16:53:03;10.38;;;4.25;;
75787;SDS011;64406;50.024;14.492;2023-03-29T16:55:30;9.00;;;4.38;;
75787;SDS011;64406;50.024;14.492;2023-03-29T16:57:55;7.78;;;4.30;;